New Middletown, Indiana
Current Conditions -  °F | °C
As of 11:56 AM on Sunday 21 Dec 2014 (Local Time) from KSDF Reporting Station
Broken Clouds Broken Clouds  
Wind Chill: 33°   Ceiling: 25000
Heat Index: 38°   Visibility: 8mi
Dew Point: 28°   Wind: 7mph
Humidity: 68%   Direction: 110°ESE
Pressure: 30.26"   Gusts: NA
Location:  38.16°N, 86.05°W
Report Text: KSDF 211656Z 11006KT 8SM BKN250 03/M02 A3026 RMK AO2 SLP251 T00331022
Loading
Personal Weather Stations






























Interactive Weather Map New forecast layout! Learn more

10-Day Weather Forecast

Advertisements
Track Severe Weather on mobile